HSSS

Details ICAO HSSS (KRT)
Name KHARTOUM INTL
Region Sudan and South Sudan
Timezone Africa/Khartoum (UTC+2.0)
Plans Departing 662
Arriving 547
Stats Elevation 1,265 ft / 386 m (AMSL)
Location 15.589500° 32.553200°
Runways 1
Magnetic Variation 3.494° E
Sunrise 2019-05-19 03:21:03 UTC / 2019-05-19 05:21:03 Local
Sunset 2019-05-19 16:14:15 UTC / 2019-05-19 18:14:15 Local
Advertisement - Login to hide

Runways

ID Width Length Bearing (true/mag) Surface Threshold Overrun Markings Lighting
18 144 ft / 44 m 9,847 ft / 3,002 m 179.55° / 176.05° ASPHALT 0 ft / 0 m 384 ft / 117 m PREC-APP CENTERLINE EDGE THRESHOLD ALSF-II
36 144 ft / 44 m 9,847 ft / 3,002 m 359.55° / 356.05° ASPHALT 0 ft / 0 m 394 ft / 120 m PREC-APP CENTERLINE EDGE THRESHOLD ALSF-II

Approach Navaids

Runway Type Ident Frequency Range Bearing (true/mag) Slope Elevation
18 GS KIS 110.70 MHz 10 nm / 19 km 179.96° / 176.47° 3.00° 1,265 ft / 386 m (AMSL)
18 LOC-ILS KIS 110.70 MHz 18 nm / 33 km 180.05° / 176.55° - 1,265 ft / 386 m (AMSL)
36 LOC-ILS KIN 109.70 MHz 18 nm / 33 km 359.46° / 355.97° - 1,265 ft / 386 m (AMSL)
36 GS KIN 109.70 MHz 10 nm / 19 km 359.96° / 356.47° 3.00° 1,265 ft / 386 m (AMSL)

Map

Weather


0- 5 10 15 20 25 30 35+ Temperature / °C

Clouds and Precipitation
Forecast for 2019-05-19 18:00 UTC. Updated 5 hours ago

Ground ~20,000 ft ~40,000 ft Winds

METAR

HSSS 192000Z 01004KT CAVOK 35/00 Q1008 NOSIG

TAF

TAF HSSS 191700Z 1918/2024 06010G20KT CAVOK= TAF HSOB 191700Z 1918/2024 22012G22KT 6000 FEW040 SCT140 TEMPO 1920/1924 4000 TSRA FEW045CB

Frequencies

Approach 124.70 MHz KHARTOUM APP
Tower 119.20 MHz KHARTOUM TWR
Warning: Do not use this data for real-world aviation or navigation. No guarantee of current accuracy is given.